sensor_id;sensor_type;location;lat;lon;timestamp;pressure;altitude;pressure_sealevel;temperature;humidity
37298;BME280;30517;51.932;4.278;2023-11-21T00:00:57;101098.34;;;10.58;72.59
37298;BME280;30517;51.932;4.278;2023-11-21T00:03:42;101066.69;;;10.46;72.90
37298;BME280;30517;51.932;4.278;2023-11-21T00:06:22;101132.69;;;10.74;72.84
37298;BME280;30517;51.932;4.278;2023-11-21T00:09:03;101065.78;;;10.41;72.68
37298;BME280;30517;51.932;4.278;2023-11-21T00:11:45;101067.53;;;10.28;72.88
37298;BME280;30517;51.932;4.278;2023-11-21T00:14:26;101119.47;;;10.65;73.03
37298;BME280;30517;51.932;4.278;2023-11-21T00:17:07;101109.78;;;10.51;73.36
37298;BME280;30517;51.932;4.278;2023-11-21T00:19:48;100740.47;;;8.61;72.15
37298;BME280;30517;51.932;4.278;2023-11-21T00:22:28;101057.00;;;10.34;72.61
37298;BME280;30517;51.932;4.278;2023-11-21T00:25:09;101143.22;;;10.80;72.74
37298;BME280;30517;51.932;4.278;2023-11-21T00:27:51;100986.56;;;9.92;72.47
37298;BME280;30517;51.932;4.278;2023-11-21T00:30:31;101122.13;;;10.68;72.44
37298;BME280;30517;51.932;4.278;2023-11-21T00:33:13;100878.41;;;9.27;72.92
37298;BME280;30517;51.932;4.278;2023-11-21T00:35:54;101116.84;;;10.65;72.66
37298;BME280;30517;51.932;4.278;2023-11-21T00:38:38;101091.16;;;10.11;73.21
37298;BME280;30517;51.932;4.278;2023-11-21T00:41:20;101146.75;;;10.65;72.99
37298;BME280;30517;51.932;4.278;2023-11-21T00:44:00;101136.16;;;10.57;72.68
37298;BME280;30517;51.932;4.278;2023-11-21T00:46:41;101103.59;;;10.37;73.23
37298;BME280;30517;51.932;4.278;2023-11-21T00:49:22;101056.00;;;10.12;73.05
37298;BME280;30517;51.932;4.278;2023-11-21T00:52:03;101090.28;;;10.12;73.68
37298;BME280;30517;51.932;4.278;2023-11-21T00:54:44;101154.63;;;10.57;73.45
37298;BME280;30517;51.932;4.278;2023-11-21T00:57:26;101156.38;;;10.55;73.59
37298;BME280;30517;51.932;4.278;2023-11-21T01:00:07;101120.28;;;10.37;73.54
37298;BME280;30517;51.932;4.278;2023-11-21T01:02:54;101148.44;;;10.46;74.25
37298;BME280;30517;51.932;4.278;2023-11-21T01:05:35;101107.00;;;10.14;73.63
37298;BME280;30517;51.932;4.278;2023-11-21T01:08:16;101157.22;;;10.47;73.80
37298;BME280;30517;51.932;4.278;2023-11-21T01:10:57;101068.31;;;10.07;73.58
37298;BME280;30517;51.932;4.278;2023-11-21T01:13:39;101178.38;;;10.59;73.49
37298;BME280;30517;51.932;4.278;2023-11-21T01:16:20;101136.00;;;10.20;73.66
37298;BME280;30517;51.932;4.278;2023-11-21T01:19:01;101183.63;;;10.53;73.61
37298;BME280;30517;51.932;4.278;2023-11-21T01:21:42;101118.50;;;10.33;73.65
37298;BME280;30517;51.932;4.278;2023-11-21T01:24:23;101053.25;;;9.74;73.18
37298;BME280;30517;51.932;4.278;2023-11-21T01:27:05;101016.34;;;9.65;73.62
37298;BME280;30517;51.932;4.278;2023-11-21T01:29:49;101180.16;;;10.65;73.27
37298;BME280;30517;51.932;4.278;2023-11-21T01:32:30;101029.53;;;9.71;73.37
37298;BME280;30517;51.932;4.278;2023-11-21T01:35:10;101184.50;;;10.50;73.48
37298;BME280;30517;51.932;4.278;2023-11-21T01:37:51;101137.88;;;10.38;72.97
37298;BME280;30517;51.932;4.278;2023-11-21T01:40:32;100938.78;;;8.98;73.07
37298;BME280;30517;51.932;4.278;2023-11-21T01:43:13;101207.44;;;10.67;73.01
37298;BME280;30517;51.932;4.278;2023-11-21T01:45:54;101216.22;;;10.69;73.41
37298;BME280;30517;51.932;4.278;2023-11-21T01:48:37;101217.97;;;10.67;73.20
37298;BME280;30517;51.932;4.278;2023-11-21T01:51:19;101208.31;;;10.70;73.39
37298;BME280;30517;51.932;4.278;2023-11-21T01:54:00;101214.44;;;10.61;73.26
37298;BME280;30517;51.932;4.278;2023-11-21T01:56:45;101249.66;;;10.70;73.21
37298;BME280;30517;51.932;4.278;2023-11-21T01:59:27;101218.00;;;10.73;73.42
37298;BME280;30517;51.932;4.278;2023-11-21T02:02:08;101145.75;;;10.31;72.75
37298;BME280;30517;51.932;4.278;2023-11-21T02:04:49;101038.31;;;9.71;72.90
37298;BME280;30517;51.932;4.278;2023-11-21T02:07:30;101004.84;;;9.43;73.30
37298;BME280;30517;51.932;4.278;2023-11-21T02:10:12;100949.41;;;9.17;73.08
37298;BME280;30517;51.932;4.278;2023-11-21T02:12:54;101152.78;;;10.33;72.73
37298;BME280;30517;51.932;4.278;2023-11-21T02:15:36;101210.03;;;10.60;72.96
37298;BME280;30517;51.932;4.278;2023-11-21T02:18:18;100961.72;;;9.25;72.92
37298;BME280;30517;51.932;4.278;2023-11-21T02:20:59;101108.75;;;10.17;72.76
37298;BME280;30517;51.932;4.278;2023-11-21T02:23:42;101236.47;;;10.77;72.89
37298;BME280;30517;51.932;4.278;2023-11-21T02:26:24;101078.81;;;9.92;72.58
37298;BME280;30517;51.932;4.278;2023-11-21T02:29:06;101159.84;;;10.39;73.34
37298;BME280;30517;51.932;4.278;2023-11-21T02:31:52;101232.09;;;10.93;72.60
37298;BME280;30517;51.932;4.278;2023-11-21T02:34:34;101231.22;;;10.80;72.99
37298;BME280;30517;51.932;4.278;2023-11-21T02:37:15;101108.75;;;10.11;73.08
37298;BME280;30517;51.932;4.278;2023-11-21T02:39:56;101228.63;;;11.03;71.98
37298;BME280;30517;51.932;4.278;2023-11-21T02:42:37;101189.03;;;10.94;71.06
37298;BME280;30517;51.932;4.278;2023-11-21T02:45:19;101154.66;;;10.67;71.13
37298;BME280;30517;51.932;4.278;2023-11-21T02:48:01;101126.50;;;10.53;70.95
37298;BME280;30517;51.932;4.278;2023-11-21T02:50:41;101213.63;;;10.90;71.48
37298;BME280;30517;51.932;4.278;2023-11-21T02:53:23;101245.34;;;11.18;71.12
37298;BME280;30517;51.932;4.278;2023-11-21T02:56:05;101279.72;;;11.30;70.91
37298;BME280;30517;51.932;4.278;2023-11-21T02:58:46;101241.00;;;11.32;70.78
37298;BME280;30517;51.932;4.278;2023-11-21T03:01:27;101204.00;;;11.11;71.03
37298;BME280;30517;51.932;4.278;2023-11-21T03:04:08;101241.88;;;11.34;70.46
37298;BME280;30517;51.932;4.278;2023-11-21T03:06:49;101176.69;;;10.75;70.52
37298;BME280;30517;51.932;4.278;2023-11-21T03:09:30;101114.16;;;10.55;70.74
37298;BME280;30517;51.932;4.278;2023-11-21T03:12:14;101242.75;;;11.36;70.55
37298;BME280;30517;51.932;4.278;2023-11-21T03:14:56;100975.13;;;9.76;70.80
37298;BME280;30517;51.932;4.278;2023-11-21T03:17:37;101225.13;;;11.20;70.82
37298;BME280;30517;51.932;4.278;2023-11-21T03:20:18;101154.66;;;10.77;71.22
37298;BME280;30517;51.932;4.278;2023-11-21T03:22:59;101120.31;;;10.45;70.55
37298;BME280;30517;51.932;4.278;2023-11-21T03:25:39;100985.59;;;9.65;70.99
37298;BME280;30517;51.932;4.278;2023-11-21T03:28:20;101055.97;;;9.98;71.45
37298;BME280;30517;51.932;4.278;2023-11-21T03:31:01;101243.59;;;11.12;70.28
37298;BME280;30517;51.932;4.278;2023-11-21T03:33:42;101203.00;;;10.59;71.45
37298;BME280;30517;51.932;4.278;2023-11-21T03:36:23;101178.41;;;10.74;70.62
37298;BME280;30517;51.932;4.278;2023-11-21T03:39:05;101175.75;;;10.68;70.95
37298;BME280;30517;51.932;4.278;2023-11-21T03:41:46;101277.06;;;11.28;71.06
37298;BME280;30517;51.932;4.278;2023-11-21T03:44:27;101068.28;;;10.04;70.55
37298;BME280;30517;51.932;4.278;2023-11-21T03:47:08;101223.28;;;10.82;70.77
37298;BME280;30517;51.932;4.278;2023-11-21T03:49:49;101288.50;;;11.34;70.86
37298;BME280;30517;51.932;4.278;2023-11-21T03:52:30;101232.09;;;10.93;70.25
37298;BME280;30517;51.932;4.278;2023-11-21T03:55:10;101255.94;;;11.10;70.70
37298;BME280;30517;51.932;4.278;2023-11-21T03:57:52;101290.31;;;11.32;70.73
37298;BME280;30517;51.932;4.278;2023-11-21T04:00:33;101228.63;;;10.94;70.12
37298;BME280;30517;51.932;4.278;2023-11-21T04:03:14;101285.88;;;11.24;70.63
37298;BME280;30517;51.932;4.278;2023-11-21T04:05:55;101306.94;;;10.97;70.88
37298;BME280;30517;51.932;4.278;2023-11-21T04:08:36;101180.13;;;10.58;70.37
37298;BME280;30517;51.932;4.278;2023-11-21T04:11:17;101311.41;;;11.33;70.36
37298;BME280;30517;51.932;4.278;2023-11-21T04:13:58;101256.69;;;10.80;71.72
37298;BME280;30517;51.932;4.278;2023-11-21T04:16:40;101320.19;;;11.26;70.71
37298;BME280;30517;51.932;4.278;2023-11-21T04:19:23;101129.75;;;9.98;70.49
37298;BME280;30517;51.932;4.278;2023-11-21T04:22:07;101200.31;;;10.50;70.78
37298;BME280;30517;51.932;4.278;2023-11-21T04:24:48;101129.72;;;9.83;70.83
37298;BME280;30517;51.932;4.278;2023-11-21T04:27:29;101054.09;;;9.65;70.04
37298;BME280;30517;51.932;4.278;2023-11-21T04:30:14;101081.41;;;9.87;70.77
37298;BME280;30517;51.932;4.278;2023-11-21T04:32:58;101252.31;;;10.88;70.17
37298;BME280;30517;51.932;4.278;2023-11-21T04:35:39;101336.06;;;11.35;70.85
37298;BME280;30517;51.932;4.278;2023-11-21T04:38:20;101349.22;;;11.23;70.64
37298;BME280;30517;51.932;4.278;2023-11-21T04:41:00;101333.41;;;11.30;70.95
37298;BME280;30517;51.932;4.278;2023-11-21T04:43:41;101297.25;;;10.94;70.68
37298;BME280;30517;51.932;4.278;2023-11-21T04:46:22;101184.44;;;10.39;70.63
37298;BME280;30517;51.932;4.278;2023-11-21T04:49:03;101337.75;;;11.15;70.91
37298;BME280;30517;51.932;4.278;2023-11-21T04:51:44;101109.47;;;9.79;70.69
37298;BME280;30517;51.932;4.278;2023-11-21T04:54:25;100854.31;;;8.43;70.14
37298;BME280;30517;51.932;4.278;2023-11-21T04:57:06;101161.50;;;10.25;70.14
37298;BME280;30517;51.932;4.278;2023-11-21T04:59:50;101077.56;;;9.28;71.33
37298;BME280;30517;51.932;4.278;2023-11-21T05:02:31;101286.63;;;10.80;70.70
37298;BME280;30517;51.932;4.278;2023-11-21T05:05:14;101363.38;;;11.36;70.50
37298;BME280;30517;51.932;4.278;2023-11-21T05:07:55;101084.84;;;9.69;70.65
37298;BME280;30517;51.932;4.278;2023-11-21T05:10:36;101129.78;;;10.00;69.90
37298;BME280;30517;51.932;4.278;2023-11-21T05:13:20;101285.72;;;10.80;70.54
37298;BME280;30517;51.932;4.278;2023-11-21T05:16:01;101260.88;;;10.30;70.02
37298;BME280;30517;51.932;4.278;2023-11-21T05:18:44;101395.09;;;11.40;70.48
37298;BME280;30517;51.932;4.278;2023-11-21T05:21:25;101329.81;;;11.02;70.34
37298;BME280;30517;51.932;4.278;2023-11-21T05:24:06;100923.53;;;8.47;69.65
37298;BME280;30517;51.932;4.278;2023-11-21T05:26:47;101340.38;;;10.99;70.14
37298;BME280;30517;51.932;4.278;2023-11-21T05:29:28;100901.53;;;8.38;70.04
37298;BME280;30517;51.932;4.278;2023-11-21T05:32:09;101401.22;;;11.36;70.29
37298;BME280;30517;51.932;4.278;2023-11-21T05:34:50;101251.28;;;10.43;70.48
37298;BME280;30517;51.932;4.278;2023-11-21T05:37:31;101341.19;;;10.91;70.26
37298;BME280;30517;51.932;4.278;2023-11-21T05:40:13;101273.34;;;10.57;70.30
37298;BME280;30517;51.932;4.278;2023-11-21T05:42:53;101420.63;;;11.40;70.51
37298;BME280;30517;51.932;4.278;2023-11-21T05:45:36;101370.31;;;11.04;70.09
37298;BME280;30517;51.932;4.278;2023-11-21T05:48:17;101225.69;;;10.24;70.15
37298;BME280;30517;51.932;4.278;2023-11-21T05:51:00;101436.47;;;11.41;70.13
37298;BME280;30517;51.932;4.278;2023-11-21T05:53:41;101412.66;;;11.32;70.06
37298;BME280;30517;51.932;4.278;2023-11-21T05:56:22;101278.63;;;10.56;70.04
37298;BME280;30517;51.932;4.278;2023-11-21T05:59:11;101457.59;;;11.41;70.21
37298;BME280;30517;51.932;4.278;2023-11-21T06:01:52;100992.16;;;8.80;70.27
37298;BME280;30517;51.932;4.278;2023-11-21T06:04:34;100999.97;;;8.71;69.77
37298;BME280;30517;51.932;4.278;2023-11-21T06:07:17;101300.53;;;10.46;70.77
37298;BME280;30517;51.932;4.278;2023-11-21T06:09:57;101459.34;;;11.39;70.26
37298;BME280;30517;51.932;4.278;2023-11-21T06:12:38;101255.56;;;10.24;70.07
37298;BME280;30517;51.932;4.278;2023-11-21T06:15:21;101463.78;;;11.46;70.38
37298;BME280;30517;51.932;4.278;2023-11-21T06:18:06;101464.63;;;11.41;70.51
37298;BME280;30517;51.932;4.278;2023-11-21T06:20:50;101473.41;;;11.34;70.67
37298;BME280;30517;51.932;4.278;2023-11-21T06:23:36;101441.81;;;11.66;70.33
37298;BME280;30517;51.932;4.278;2023-11-21T06:26:26;101211.53;;;10.08;70.44
37298;BME280;30517;51.932;4.278;2023-11-21T06:29:11;101379.00;;;10.88;70.82
37298;BME280;30517;51.932;4.278;2023-11-21T06:31:56;101054.56;;;9.01;70.29
37298;BME280;30517;51.932;4.278;2023-11-21T06:34:37;101173.50;;;9.67;70.44
37298;BME280;30517;51.932;4.278;2023-11-21T06:37:18;101082.59;;;8.95;70.10
37298;BME280;30517;51.932;4.278;2023-11-21T06:40:02;101202.63;;;9.90;70.46
37298;BME280;30517;51.932;4.278;2023-11-21T06:42:44;101473.41;;;11.35;70.43
37298;BME280;30517;51.932;4.278;2023-11-21T06:45:26;101558.03;;;11.58;70.55
37298;BME280;30517;51.932;4.278;2023-11-21T06:48:07;101366.59;;;10.64;69.85
37298;BME280;30517;51.932;4.278;2023-11-21T06:50:48;101517.53;;;11.53;70.38
37298;BME280;30517;51.932;4.278;2023-11-21T06:53:28;101438.06;;;11.02;70.62
37298;BME280;30517;51.932;4.278;2023-11-21T06:56:19;101521.94;;;11.54;70.18
37298;BME280;30517;51.932;4.278;2023-11-21T06:59:00;101455.72;;;11.16;69.95
37298;BME280;30517;51.932;4.278;2023-11-21T07:01:40;101385.06;;;10.69;69.85
37298;BME280;30517;51.932;4.278;2023-11-21T07:04:21;101507.78;;;11.41;69.83
37298;BME280;30517;51.932;4.278;2023-11-21T07:07:03;101269.34;;;9.88;70.23
37298;BME280;30517;51.932;4.278;2023-11-21T07:09:44;101295.84;;;10.05;70.35
37298;BME280;30517;51.932;4.278;2023-11-21T07:12:25;101484.69;;;11.02;69.55
37298;BME280;30517;51.932;4.278;2023-11-21T07:15:07;101461.78;;;11.01;69.97
37298;BME280;30517;51.932;4.278;2023-11-21T07:17:49;101536.78;;;11.37;69.95
37298;BME280;30517;51.932;4.278;2023-11-21T07:20:30;101315.19;;;10.07;69.92
37298;BME280;30517;51.932;4.278;2023-11-21T07:23:11;101383.09;;;10.32;69.41
37298;BME280;30517;51.932;4.278;2023-11-21T07:25:52;101541.69;;;10.77;73.35
37298;BME280;30517;51.932;4.278;2023-11-21T07:28:33;101492.97;;;10.35;75.96
37298;BME280;30517;51.932;4.278;2023-11-21T07:31:14;101441.78;;;10.14;74.96
37298;BME280;30517;51.932;4.278;2023-11-21T07:33:57;101534.41;;;10.50;74.26
37298;BME280;30517;51.932;4.278;2023-11-21T07:36:38;101596.53;;;11.18;73.35
37298;BME280;30517;51.932;4.278;2023-11-21T07:39:19;101155.84;;;8.55;72.18
37298;BME280;30517;51.932;4.278;2023-11-21T07:42:01;101598.47;;;11.45;71.33
37298;BME280;30517;51.932;4.278;2023-11-21T07:44:42;101578.59;;;10.72;72.83
37298;BME280;30517;51.932;4.278;2023-11-21T07:47:23;101602.84;;;11.37;71.39
37298;BME280;30517;51.932;4.278;2023-11-21T07:50:07;101614.25;;;11.31;71.18
37298;BME280;30517;51.932;4.278;2023-11-21T07:52:48;101478.09;;;10.40;71.65
37298;BME280;30517;51.932;4.278;2023-11-21T07:55:29;101593.06;;;11.19;70.58
37298;BME280;30517;51.932;4.278;2023-11-21T07:58:12;101505.44;;;10.51;71.32
37298;BME280;30517;51.932;4.278;2023-11-21T08:00:53;101603.59;;;11.20;71.31
37298;BME280;30517;51.932;4.278;2023-11-21T08:03:34;101629.25;;;11.32;71.22
37298;BME280;30517;51.932;4.278;2023-11-21T08:06:15;101630.19;;;11.43;70.74
37298;BME280;30517;51.932;4.278;2023-11-21T08:08:56;101618.59;;;11.26;70.57
37298;BME280;30517;51.932;4.278;2023-11-21T08:11:37;101625.75;;;11.39;69.96
37298;BME280;30517;51.932;4.278;2023-11-21T08:14:19;101318.69;;;9.13;71.87
37298;BME280;30517;51.932;4.278;2023-11-21T08:17:00;101601.34;;;10.61;72.51
37298;BME280;30517;51.932;4.278;2023-11-21T08:19:41;101471.25;;;9.75;72.23
37298;BME280;30517;51.932;4.278;2023-11-21T08:22:22;101620.84;;;10.77;72.48
37298;BME280;30517;51.932;4.278;2023-11-21T08:25:03;101627.88;;;10.76;72.43
37298;BME280;30517;51.932;4.278;2023-11-21T08:27:44;101584.03;;;10.89;71.24
37298;BME280;30517;51.932;4.278;2023-11-21T08:30:25;101663.44;;;11.15;71.18
37298;BME280;30517;51.932;4.278;2023-11-21T08:33:10;101583.88;;;10.74;71.63
37298;BME280;30517;51.932;4.278;2023-11-21T08:35:52;101661.88;;;11.40;71.05
37298;BME280;30517;51.932;4.278;2023-11-21T08:38:33;101635.34;;;11.28;70.92
37298;BME280;30517;51.932;4.278;2023-11-21T08:41:15;101542.56;;;10.76;70.07
37298;BME280;30517;51.932;4.278;2023-11-21T08:43:56;101570.84;;;10.92;70.63
37298;BME280;30517;51.932;4.278;2023-11-21T08:46:38;101612.38;;;11.15;70.34
37298;BME280;30517;51.932;4.278;2023-11-21T08:49:19;101608.84;;;11.13;70.64
37298;BME280;30517;51.932;4.278;2023-11-21T08:52:00;101593.75;;;10.95;70.88
37298;BME280;30517;51.932;4.278;2023-11-21T08:54:41;101681.28;;;11.42;70.74
37298;BME280;30517;51.932;4.278;2023-11-21T08:57:25;101677.75;;;11.43;70.45
37298;BME280;30517;51.932;4.278;2023-11-21T09:00:07;101438.91;;;9.90;70.02
37298;BME280;30517;51.932;4.278;2023-11-21T09:02:51;101688.28;;;11.37;70.07
37298;BME280;30517;51.932;4.278;2023-11-21T09:05:32;101692.72;;;11.47;70.53
37298;BME280;30517;51.932;4.278;2023-11-21T09:08:13;101685.63;;;11.37;70.83
37298;BME280;30517;51.932;4.278;2023-11-21T09:10:54;101537.06;;;10.53;70.10
37298;BME280;30517;51.932;4.278;2023-11-21T09:13:35;101484.66;;;9.96;70.67
37298;BME280;30517;51.932;4.278;2023-11-21T09:16:17;101577.22;;;10.24;72.01
37298;BME280;30517;51.932;4.278;2023-11-21T09:18:58;101629.44;;;10.54;72.01
37298;BME280;30517;51.932;4.278;2023-11-21T09:21:39;101723.16;;;11.02;72.16
37298;BME280;30517;51.932;4.278;2023-11-21T09:24:20;101470.34;;;9.73;71.73
37298;BME280;30517;51.932;4.278;2023-11-21T09:27:01;101539.88;;;9.86;72.53
37298;BME280;30517;51.932;4.278;2023-11-21T09:29:42;101578.94;;;10.22;71.85
37298;BME280;30517;51.932;4.278;2023-11-21T09:32:23;101694.03;;;10.93;72.03
37298;BME280;30517;51.932;4.278;2023-11-21T09:35:04;101614.22;;;10.30;72.60
37298;BME280;30517;51.932;4.278;2023-11-21T09:37:48;101597.31;;;10.13;71.99
37298;BME280;30517;51.932;4.278;2023-11-21T09:40:29;101755.66;;;10.98;72.67
37298;BME280;30517;51.932;4.278;2023-11-21T09:43:20;101736.13;;;10.82;72.21
37298;BME280;30517;51.932;4.278;2023-11-21T09:46:06;101721.25;;;10.86;72.12
37298;BME280;30517;51.932;4.278;2023-11-21T09:48:51;101649.47;;;10.38;72.84
37298;BME280;30517;51.932;4.278;2023-11-21T09:51:32;101788.34;;;11.08;72.79
37298;BME280;30517;51.932;4.278;2023-11-21T09:54:16;101718.34;;;10.63;72.76
37298;BME280;30517;51.932;4.278;2023-11-21T09:57:02;101660.84;;;10.33;72.15
37298;BME280;30517;51.932;4.278;2023-11-21T09:59:48;101787.63;;;11.26;71.24
37298;BME280;30517;51.932;4.278;2023-11-21T10:02:33;101762.06;;;11.22;70.51
37298;BME280;30517;51.932;4.278;2023-11-21T10:05:16;101798.25;;;11.30;70.55
37298;BME280;30517;51.932;4.278;2023-11-21T10:07:57;101762.03;;;11.17;70.85
37298;BME280;30517;51.932;4.278;2023-11-21T10:10:46;101832.72;;;11.44;71.37
37298;BME280;30517;51.932;4.278;2023-11-21T10:13:29;101796.22;;;11.02;72.32
37298;BME280;30517;51.932;4.278;2023-11-21T10:16:14;101828.09;;;11.22;72.07
37298;BME280;30517;51.932;4.278;2023-11-21T10:18:58;101839.59;;;11.27;72.33
37298;BME280;30517;51.932;4.278;2023-11-21T10:21:39;101848.41;;;11.27;71.88
37298;BME280;30517;51.932;4.278;2023-11-21T10:24:20;101586.16;;;9.65;72.43
37298;BME280;30517;51.932;4.278;2023-11-21T10:27:01;101835.63;;;10.87;72.44
37298;BME280;30517;51.932;4.278;2023-11-21T10:29:42;101768.59;;;10.74;71.86
37298;BME280;30517;51.932;4.278;2023-11-21T10:32:28;101813.09;;;11.16;71.58
37298;BME280;30517;51.932;4.278;2023-11-21T10:35:12;101863.53;;;11.41;71.81
37298;BME280;30517;51.932;4.278;2023-11-21T10:38:00;101850.28;;;11.38;71.99
37298;BME280;30517;51.932;4.278;2023-11-21T10:40:44;101782.19;;;11.09;71.04
37298;BME280;30517;51.932;4.278;2023-11-21T10:43:26;101760.81;;;10.84;71.30
37298;BME280;30517;51.932;4.278;2023-11-21T10:46:07;101845.66;;;11.15;72.30
37298;BME280;30517;51.932;4.278;2023-11-21T10:48:53;101821.75;;;11.04;71.55
37298;BME280;30517;51.932;4.278;2023-11-21T10:51:36;101875.84;;;11.40;71.88
37298;BME280;30517;51.932;4.278;2023-11-21T10:54:18;101882.81;;;11.32;72.35
37298;BME280;30517;51.932;4.278;2023-11-21T10:57:00;101880.41;;;11.57;71.45
37298;BME280;30517;51.932;4.278;2023-11-21T10:59:46;101751.25;;;10.94;71.02
37298;BME280;30517;51.932;4.278;2023-11-21T11:02:28;101809.69;;;11.26;70.87
37298;BME280;30517;51.932;4.278;2023-11-21T11:05:12;101840.47;;;11.24;71.13
37298;BME280;30517;51.932;4.278;2023-11-21T11:10:45;101597.78;;;9.83;71.28
37298;BME280;30517;51.932;4.278;2023-11-21T11:13:30;101882.94;;;11.46;71.85
37298;BME280;30517;51.932;4.278;2023-11-21T11:16:15;101849.22;;;11.22;71.61
37298;BME280;30517;51.932;4.278;2023-11-21T11:18:57;101861.75;;;11.41;71.91
37298;BME280;30517;51.932;4.278;2023-11-21T11:24:53;101893.41;;;11.35;72.01
37298;BME280;30517;51.932;4.278;2023-11-21T11:27:54;101901.50;;;11.52;71.64
37298;BME280;30517;51.932;4.278;2023-11-21T11:30:52;101816.91;;;10.67;72.14
37298;BME280;30517;51.932;4.278;2023-11-21T11:34:04;101866.97;;;11.32;72.04
37298;BME280;30517;51.932;4.278;2023-11-21T11:37:01;101829.81;;;11.17;71.61
37298;BME280;30517;51.932;4.278;2023-11-21T11:39:43;101897.16;;;11.57;71.76
37298;BME280;30517;51.932;4.278;2023-11-21T11:42:26;101818.28;;;11.08;71.97
37298;BME280;30517;51.932;4.278;2023-11-21T11:45:19;101831.56;;;11.16;71.33
37298;BME280;30517;51.932;4.278;2023-11-21T11:48:01;101914.78;;;11.58;71.72
37298;BME280;30517;51.932;4.278;2023-11-21T11:51:01;101874.03;;;11.35;71.48
37298;BME280;30517;51.932;4.278;2023-11-21T11:53:47;101914.78;;;11.57;71.54
37298;BME280;30517;51.932;4.278;2023-11-21T11:56:29;101918.41;;;11.68;71.33
37298;BME280;30517;51.932;4.278;2023-11-21T11:59:14;101856.34;;;11.27;71.79
37298;BME280;30517;51.932;4.278;2023-11-21T12:01:56;101928.06;;;11.64;71.17
37298;BME280;30517;51.932;4.278;2023-11-21T12:04:44;101947.44;;;11.66;71.76
37298;BME280;30517;51.932;4.278;2023-11-21T12:07:40;101928.94;;;11.63;71.66
37298;BME280;30517;51.932;4.278;2023-11-21T12:10:23;101618.94;;;9.86;71.65
37298;BME280;30517;51.932;4.278;2023-11-21T12:13:09;101921.94;;;11.67;71.79
37298;BME280;30517;51.932;4.278;2023-11-21T12:15:52;101692.41;;;10.28;71.33
37298;BME280;30517;51.932;4.278;2023-11-21T12:18:34;101903.97;;;11.37;71.57
37298;BME280;30517;51.932;4.278;2023-11-21T12:21:15;101889.03;;;11.37;71.94
37298;BME280;30517;51.932;4.278;2023-11-21T12:23:56;101943.03;;;11.65;71.67
37298;BME280;30517;51.932;4.278;2023-11-21T12:26:37;101948.31;;;11.62;71.63
37298;BME280;30517;51.932;4.278;2023-11-21T12:29:18;101957.69;;;11.34;71.65
37298;BME280;30517;51.932;4.278;2023-11-21T12:31:59;101687.84;;;10.16;71.86
37298;BME280;30517;51.932;4.278;2023-11-21T12:34:40;101942.13;;;11.62;72.00
37298;BME280;30517;51.932;4.278;2023-11-21T12:37:21;101789.78;;;10.78;71.51
37298;BME280;30517;51.932;4.278;2023-11-21T12:40:02;101784.16;;;10.51;71.86
37298;BME280;30517;51.932;4.278;2023-11-21T12:42:48;101861.50;;;11.17;71.61
37298;BME280;30517;51.932;4.278;2023-11-21T12:45:29;101959.88;;;11.73;71.50
37298;BME280;30517;51.932;4.278;2023-11-21T12:48:14;101841.03;;;10.97;71.48
37298;BME280;30517;51.932;4.278;2023-11-21T12:50:57;101933.06;;;11.38;71.68
37298;BME280;30517;51.932;4.278;2023-11-21T12:53:40;101918.94;;;11.36;71.43
37298;BME280;30517;51.932;4.278;2023-11-21T12:56:25;101880.00;;;11.20;71.97
37298;BME280;30517;51.932;4.278;2023-11-21T12:59:07;101968.44;;;11.51;71.70
37298;BME280;30517;51.932;4.278;2023-11-21T13:01:51;101823.22;;;10.81;71.64
37298;BME280;30517;51.932;4.278;2023-11-21T13:04:34;101889.63;;;11.15;71.70
37298;BME280;30517;51.932;4.278;2023-11-21T13:07:15;101747.06;;;10.37;71.10
37298;BME280;30517;51.932;4.278;2023-11-21T13:09:57;101999.56;;;11.77;71.69
37298;BME280;30517;51.932;4.278;2023-11-21T13:12:45;101986.31;;;11.73;71.51
37298;BME280;30517;51.932;4.278;2023-11-21T13:15:32;101983.66;;;11.72;71.20
37298;BME280;30517;51.932;4.278;2023-11-21T13:18:15;101926.09;;;11.46;71.37
37298;BME280;30517;51.932;4.278;2023-11-21T13:20:59;101988.34;;;11.96;71.24
37298;BME280;30517;51.932;4.278;2023-11-21T13:23:44;101939.53;;;11.66;70.68
37298;BME280;30517;51.932;4.278;2023-11-21T13:26:26;101998.00;;;11.91;71.54
37298;BME280;30517;51.932;4.278;2023-11-21T13:29:06;101741.91;;;10.49;70.77
37298;BME280;30517;51.932;4.278;2023-11-21T13:31:48;101991.63;;;11.75;71.09
37298;BME280;30517;51.932;4.278;2023-11-21T13:34:30;102008.59;;;11.94;70.63
37298;BME280;30517;51.932;4.278;2023-11-21T13:37:12;101995.19;;;11.79;70.92
37298;BME280;30517;51.932;4.278;2023-11-21T13:39:53;101938.63;;;11.61;70.69
37298;BME280;30517;51.932;4.278;2023-11-21T13:42:34;102003.38;;;12.00;70.57
37298;BME280;30517;51.932;4.278;2023-11-21T13:45:15;102013.09;;;12.04;70.00
37298;BME280;30517;51.932;4.278;2023-11-21T13:47:58;101971.44;;;11.85;70.51
37298;BME280;30517;51.932;4.278;2023-11-21T13:50:40;102013.16;;;12.07;70.34
37298;BME280;30517;51.932;4.278;2023-11-21T13:53:28;102016.66;;;12.05;70.43
37298;BME280;30517;51.932;4.278;2023-11-21T13:56:09;101959.00;;;11.74;70.55
37298;BME280;30517;51.932;4.278;2023-11-21T13:58:51;101983.00;;;11.90;70.86
37298;BME280;30517;51.932;4.278;2023-11-21T14:01:32;101941.19;;;11.58;70.63
37298;BME280;30517;51.932;4.278;2023-11-21T14:04:42;102038.75;;;12.10;70.67
37298;BME280;30517;51.932;4.278;2023-11-21T14:07:46;102042.28;;;12.10;70.17
37298;BME280;30517;51.932;4.278;2023-11-21T14:10:29;102033.38;;;12.04;70.32
37298;BME280;30517;51.932;4.278;2023-11-21T14:13:20;102048.50;;;12.17;70.35
37298;BME280;30517;51.932;4.278;2023-11-21T14:16:03;101855.16;;;11.02;70.89